sensor_id;sensor_type;location;lat;lon;timestamp;temperature;humidity
18218;DHT22;9234;49.344;11.120;2023-07-13T00:01:14;21.50;92.30
18218;DHT22;9234;49.344;11.120;2023-07-13T00:03:44;21.50;92.30
18218;DHT22;9234;49.344;11.120;2023-07-13T00:06:12;21.50;92.30
18218;DHT22;9234;49.344;11.120;2023-07-13T00:08:41;21.50;92.40
18218;DHT22;9234;49.344;11.120;2023-07-13T00:11:09;21.50;92.40
18218;DHT22;9234;49.344;11.120;2023-07-13T00:13:37;21.40;92.50
18218;DHT22;9234;49.344;11.120;2023-07-13T00:16:08;21.40;92.50
18218;DHT22;9234;49.344;11.120;2023-07-13T00:18:37;21.40;92.50
18218;DHT22;9234;49.344;11.120;2023-07-13T00:21:06;21.50;92.50
18218;DHT22;9234;49.344;11.120;2023-07-13T00:23:36;21.50;92.50
18218;DHT22;9234;49.344;11.120;2023-07-13T00:26:07;21.50;92.60
18218;DHT22;9234;49.344;11.120;2023-07-13T00:28:39;21.40;92.50
18218;DHT22;9234;49.344;11.120;2023-07-13T00:31:11;21.40;92.60
18218;DHT22;9234;49.344;11.120;2023-07-13T00:33:41;21.40;92.60
18218;DHT22;9234;49.344;11.120;2023-07-13T00:36:10;21.40;92.50
18218;DHT22;9234;49.344;11.120;2023-07-13T00:38:39;21.40;92.70
18218;DHT22;9234;49.344;11.120;2023-07-13T00:41:08;21.40;92.70
18218;DHT22;9234;49.344;11.120;2023-07-13T00:43:37;21.40;92.60
18218;DHT22;9234;49.344;11.120;2023-07-13T00:46:17;21.40;92.70
18218;DHT22;9234;49.344;11.120;2023-07-13T00:48:54;21.30;92.80
18218;DHT22;9234;49.344;11.120;2023-07-13T00:51:30;21.30;92.80
18218;DHT22;9234;49.344;11.120;2023-07-13T00:54:05;21.30;93.20
18218;DHT22;9234;49.344;11.120;2023-07-13T00:56:38;21.20;92.80
18218;DHT22;9234;49.344;11.120;2023-07-13T00:59:08;21.20;92.80
18218;DHT22;9234;49.344;11.120;2023-07-13T01:01:40;21.30;92.80
18218;DHT22;9234;49.344;11.120;2023-07-13T01:04:09;21.20;92.80
18218;DHT22;9234;49.344;11.120;2023-07-13T01:06:38;21.20;92.80
18218;DHT22;9234;49.344;11.120;2023-07-13T01:09:08;21.20;92.90
18218;DHT22;9234;49.344;11.120;2023-07-13T01:11:39;21.10;92.90
18218;DHT22;9234;49.344;11.120;2023-07-13T01:14:08;21.00;92.90
18218;DHT22;9234;49.344;11.120;2023-07-13T01:16:37;21.00;93.00
18218;DHT22;9234;49.344;11.120;2023-07-13T01:19:20;21.00;92.90
18218;DHT22;9234;49.344;11.120;2023-07-13T01:22:06;21.00;93.00
18218;DHT22;9234;49.344;11.120;2023-07-13T01:24:39;20.90;92.90
18218;DHT22;9234;49.344;11.120;2023-07-13T01:27:11;20.90;93.00
18218;DHT22;9234;49.344;11.120;2023-07-13T01:29:42;20.80;93.00
18218;DHT22;9234;49.344;11.120;2023-07-13T01:32:16;20.80;93.20
18218;DHT22;9234;49.344;11.120;2023-07-13T01:34:54;20.70;93.20
18218;DHT22;9234;49.344;11.120;2023-07-13T01:37:24;20.60;93.30
18218;DHT22;9234;49.344;11.120;2023-07-13T01:39:54;20.60;93.40
18218;DHT22;9234;49.344;11.120;2023-07-13T01:42:22;20.50;93.50
18218;DHT22;9234;49.344;11.120;2023-07-13T01:44:51;20.50;93.60
18218;DHT22;9234;49.344;11.120;2023-07-13T01:47:19;20.40;93.80
18218;DHT22;9234;49.344;11.120;2023-07-13T01:49:47;20.30;93.80
18218;DHT22;9234;49.344;11.120;2023-07-13T01:52:18;20.30;94.00
18218;DHT22;9234;49.344;11.120;2023-07-13T01:54:48;20.20;94.10
18218;DHT22;9234;49.344;11.120;2023-07-13T01:57:16;20.20;94.20
18218;DHT22;9234;49.344;11.120;2023-07-13T01:59:44;20.10;94.40
18218;DHT22;9234;49.344;11.120;2023-07-13T02:02:13;20.00;94.50
18218;DHT22;9234;49.344;11.120;2023-07-13T02:04:41;20.00;94.60
18218;DHT22;9234;49.344;11.120;2023-07-13T02:07:09;19.90;94.80
18218;DHT22;9234;49.344;11.120;2023-07-13T02:09:37;19.80;94.90
18218;DHT22;9234;49.344;11.120;2023-07-13T02:12:08;19.80;95.00
18218;DHT22;9234;49.344;11.120;2023-07-13T02:14:37;19.80;95.20
18218;DHT22;9234;49.344;11.120;2023-07-13T02:17:05;19.70;95.20
18218;DHT22;9234;49.344;11.120;2023-07-13T02:19:34;19.60;95.30
18218;DHT22;9234;49.344;11.120;2023-07-13T02:22:03;19.60;95.40
18218;DHT22;9234;49.344;11.120;2023-07-13T02:24:32;19.50;95.60
18218;DHT22;9234;49.344;11.120;2023-07-13T02:27:00;19.50;95.50
18218;DHT22;9234;49.344;11.120;2023-07-13T02:29:30;19.50;95.80
18218;DHT22;9234;49.344;11.120;2023-07-13T02:31:58;19.40;95.80
18218;DHT22;9234;49.344;11.120;2023-07-13T02:34:26;19.30;95.80
18218;DHT22;9234;49.344;11.120;2023-07-13T02:36:58;19.30;95.90
18218;DHT22;9234;49.344;11.120;2023-07-13T02:39:30;19.20;96.00
18218;DHT22;9234;49.344;11.120;2023-07-13T02:42:00;19.10;96.00
18218;DHT22;9234;49.344;11.120;2023-07-13T02:44:30;19.10;96.10
18218;DHT22;9234;49.344;11.120;2023-07-13T02:46:59;19.10;96.10
18218;DHT22;9234;49.344;11.120;2023-07-13T02:49:27;19.10;96.10
18218;DHT22;9234;49.344;11.120;2023-07-13T02:51:55;19.00;96.20
18218;DHT22;9234;49.344;11.120;2023-07-13T02:54:24;19.00;96.30
18218;DHT22;9234;49.344;11.120;2023-07-13T02:56:52;18.90;96.30
18218;DHT22;9234;49.344;11.120;2023-07-13T02:59:21;18.90;96.40
18218;DHT22;9234;49.344;11.120;2023-07-13T03:01:50;18.90;96.50
18218;DHT22;9234;49.344;11.120;2023-07-13T03:04:19;18.80;96.30
18218;DHT22;9234;49.344;11.120;2023-07-13T03:06:47;18.80;96.30
18218;DHT22;9234;49.344;11.120;2023-07-13T03:09:16;18.80;96.30
18218;DHT22;9234;49.344;11.120;2023-07-13T03:11:52;18.70;96.30
18218;DHT22;9234;49.344;11.120;2023-07-13T03:14:28;18.60;96.20
18218;DHT22;9234;49.344;11.120;2023-07-13T03:17:00;18.60;96.20
18218;DHT22;9234;49.344;11.120;2023-07-13T03:19:31;18.60;96.20
18218;DHT22;9234;49.344;11.120;2023-07-13T03:22:00;18.50;96.20
18218;DHT22;9234;49.344;11.120;2023-07-13T03:24:29;18.50;96.20
18218;DHT22;9234;49.344;11.120;2023-07-13T03:26:57;18.40;96.10
18218;DHT22;9234;49.344;11.120;2023-07-13T03:29:26;18.40;96.20
18218;DHT22;9234;49.344;11.120;2023-07-13T03:31:54;18.30;96.20
18218;DHT22;9234;49.344;11.120;2023-07-13T03:34:24;18.30;96.20
18218;DHT22;9234;49.344;11.120;2023-07-13T03:36:54;18.30;96.40
18218;DHT22;9234;49.344;11.120;2023-07-13T03:39:23;18.20;96.30
18218;DHT22;9234;49.344;11.120;2023-07-13T03:41:54;18.20;96.40
18218;DHT22;9234;49.344;11.120;2023-07-13T03:44:22;18.10;96.40
18218;DHT22;9234;49.344;11.120;2023-07-13T03:46:55;18.10;96.50
18218;DHT22;9234;49.344;11.120;2023-07-13T03:49:25;18.10;96.60
18218;DHT22;9234;49.344;11.120;2023-07-13T03:51:54;18.00;96.60
18218;DHT22;9234;49.344;11.120;2023-07-13T03:54:22;18.00;96.60
18218;DHT22;9234;49.344;11.120;2023-07-13T03:56:50;18.00;96.60
18218;DHT22;9234;49.344;11.120;2023-07-13T03:59:20;18.00;96.70
18218;DHT22;9234;49.344;11.120;2023-07-13T04:01:49;17.90;96.70
18218;DHT22;9234;49.344;11.120;2023-07-13T04:04:17;17.90;96.70
18218;DHT22;9234;49.344;11.120;2023-07-13T04:06:47;17.90;96.80
18218;DHT22;9234;49.344;11.120;2023-07-13T04:09:15;17.90;96.80
18218;DHT22;9234;49.344;11.120;2023-07-13T04:11:43;17.80;96.70
18218;DHT22;9234;49.344;11.120;2023-07-13T04:14:12;17.80;96.60
18218;DHT22;9234;49.344;11.120;2023-07-13T04:16:40;17.80;96.60
18218;DHT22;9234;49.344;11.120;2023-07-13T04:19:10;17.80;96.70
18218;DHT22;9234;49.344;11.120;2023-07-13T04:21:38;17.80;96.70
18218;DHT22;9234;49.344;11.120;2023-07-13T04:24:08;17.80;96.70
18218;DHT22;9234;49.344;11.120;2023-07-13T04:26:36;17.80;96.60
18218;DHT22;9234;49.344;11.120;2023-07-13T04:29:05;17.80;96.70
18218;DHT22;9234;49.344;11.120;2023-07-13T04:31:34;17.80;96.70
18218;DHT22;9234;49.344;11.120;2023-07-13T04:34:03;17.80;96.70
18218;DHT22;9234;49.344;11.120;2023-07-13T04:36:31;17.80;96.90
18218;DHT22;9234;49.344;11.120;2023-07-13T04:38:59;17.80;96.80
18218;DHT22;9234;49.344;11.120;2023-07-13T04:41:29;17.80;96.80
18218;DHT22;9234;49.344;11.120;2023-07-13T04:43:58;17.80;96.80
18218;DHT22;9234;49.344;11.120;2023-07-13T04:46:26;17.80;96.60
18218;DHT22;9234;49.344;11.120;2023-07-13T04:48:54;17.80;96.60
18218;DHT22;9234;49.344;11.120;2023-07-13T04:51:23;17.80;96.50
18218;DHT22;9234;49.344;11.120;2023-07-13T04:53:53;17.80;96.50
18218;DHT22;9234;49.344;11.120;2023-07-13T04:56:28;17.90;96.40
18218;DHT22;9234;49.344;11.120;2023-07-13T04:58:57;17.90;96.20
18218;DHT22;9234;49.344;11.120;2023-07-13T05:01:25;18.00;96.10
18218;DHT22;9234;49.344;11.120;2023-07-13T05:03:54;18.00;96.00
18218;DHT22;9234;49.344;11.120;2023-07-13T05:06:25;18.10;96.10
18218;DHT22;9234;49.344;11.120;2023-07-13T05:08:53;18.10;95.70
18218;DHT22;9234;49.344;11.120;2023-07-13T05:11:22;18.20;95.40
18218;DHT22;9234;49.344;11.120;2023-07-13T05:13:51;18.20;95.00
18218;DHT22;9234;49.344;11.120;2023-07-13T05:16:19;18.20;95.00
18218;DHT22;9234;49.344;11.120;2023-07-13T05:18:48;18.30;94.80
18218;DHT22;9234;49.344;11.120;2023-07-13T05:21:16;18.30;94.40
18218;DHT22;9234;49.344;11.120;2023-07-13T05:23:44;18.40;94.60
18218;DHT22;9234;49.344;11.120;2023-07-13T05:26:13;18.40;94.60
18218;DHT22;9234;49.344;11.120;2023-07-13T05:28:41;18.50;94.60
18218;DHT22;9234;49.344;11.120;2023-07-13T05:31:11;18.50;94.00
18218;DHT22;9234;49.344;11.120;2023-07-13T05:33:40;18.60;94.20
18218;DHT22;9234;49.344;11.120;2023-07-13T05:36:09;18.70;93.60
18218;DHT22;9234;49.344;11.120;2023-07-13T05:38:37;18.80;93.70
18218;DHT22;9234;49.344;11.120;2023-07-13T05:41:07;18.90;93.50
18218;DHT22;9234;49.344;11.120;2023-07-13T05:43:35;19.00;93.40
18218;DHT22;9234;49.344;11.120;2023-07-13T05:46:03;19.10;93.30
18218;DHT22;9234;49.344;11.120;2023-07-13T05:48:33;19.20;92.90
18218;DHT22;9234;49.344;11.120;2023-07-13T05:51:02;19.30;91.70
18218;DHT22;9234;49.344;11.120;2023-07-13T05:53:30;19.40;91.60
18218;DHT22;9234;49.344;11.120;2023-07-13T05:55:58;19.40;91.30
18218;DHT22;9234;49.344;11.120;2023-07-13T05:58:29;19.50;91.00
18218;DHT22;9234;49.344;11.120;2023-07-13T06:01:02;19.60;90.60
18218;DHT22;9234;49.344;11.120;2023-07-13T06:03:33;19.60;90.80
18218;DHT22;9234;49.344;11.120;2023-07-13T06:06:01;19.70;90.70
18218;DHT22;9234;49.344;11.120;2023-07-13T06:08:30;19.70;90.20
18218;DHT22;9234;49.344;11.120;2023-07-13T06:11:03;19.70;90.10
18218;DHT22;9234;49.344;11.120;2023-07-13T06:13:33;19.80;90.30
18218;DHT22;9234;49.344;11.120;2023-07-13T06:16:02;19.80;90.20
18218;DHT22;9234;49.344;11.120;2023-07-13T06:18:34;19.90;90.30
18218;DHT22;9234;49.344;11.120;2023-07-13T06:21:06;19.90;90.60
18218;DHT22;9234;49.344;11.120;2023-07-13T06:23:36;20.00;90.80
18218;DHT22;9234;49.344;11.120;2023-07-13T06:26:05;20.00;90.40
18218;DHT22;9234;49.344;11.120;2023-07-13T06:28:35;20.10;90.50
18218;DHT22;9234;49.344;11.120;2023-07-13T06:31:07;20.10;90.30
18218;DHT22;9234;49.344;11.120;2023-07-13T06:33:39;20.20;90.70
18218;DHT22;9234;49.344;11.120;2023-07-13T06:36:08;20.30;90.20
18218;DHT22;9234;49.344;11.120;2023-07-13T06:38:37;20.40;89.20
18218;DHT22;9234;49.344;11.120;2023-07-13T06:41:07;20.50;89.60
18218;DHT22;9234;49.344;11.120;2023-07-13T06:43:36;20.60;87.30
18218;DHT22;9234;49.344;11.120;2023-07-13T06:46:05;20.60;86.90
18218;DHT22;9234;49.344;11.120;2023-07-13T06:48:34;20.70;85.70
18218;DHT22;9234;49.344;11.120;2023-07-13T06:51:04;20.60;85.50
18218;DHT22;9234;49.344;11.120;2023-07-13T06:53:32;20.70;86.30
18218;DHT22;9234;49.344;11.120;2023-07-13T06:56:00;20.70;85.40
18218;DHT22;9234;49.344;11.120;2023-07-13T06:58:30;20.70;85.80
18218;DHT22;9234;49.344;11.120;2023-07-13T07:00:58;20.80;87.10
18218;DHT22;9234;49.344;11.120;2023-07-13T07:03:27;20.80;86.70
18218;DHT22;9234;49.344;11.120;2023-07-13T07:06:00;20.80;85.70
18218;DHT22;9234;49.344;11.120;2023-07-13T07:08:30;20.80;85.50
18218;DHT22;9234;49.344;11.120;2023-07-13T07:10:59;20.90;86.20
18218;DHT22;9234;49.344;11.120;2023-07-13T07:13:27;21.00;86.30
18218;DHT22;9234;49.344;11.120;2023-07-13T07:15:57;21.00;84.70
18218;DHT22;9234;49.344;11.120;2023-07-13T07:18:27;21.10;84.70
18218;DHT22;9234;49.344;11.120;2023-07-13T07:20:55;21.10;84.20
18218;DHT22;9234;49.344;11.120;2023-07-13T07:23:23;21.10;84.00
18218;DHT22;9234;49.344;11.120;2023-07-13T07:25:53;21.20;84.40
18218;DHT22;9234;49.344;11.120;2023-07-13T07:28:21;21.20;85.50
18218;DHT22;9234;49.344;11.120;2023-07-13T07:30:53;21.30;85.20
18218;DHT22;9234;49.344;11.120;2023-07-13T07:33:26;21.40;84.40
18218;DHT22;9234;49.344;11.120;2023-07-13T07:35:54;21.50;84.10
18218;DHT22;9234;49.344;11.120;2023-07-13T07:38:26;21.70;84.60
18218;DHT22;9234;49.344;11.120;2023-07-13T07:40:55;21.80;83.00
18218;DHT22;9234;49.344;11.120;2023-07-13T07:43:27;21.90;81.50
18218;DHT22;9234;49.344;11.120;2023-07-13T07:45:55;22.00;82.10
18218;DHT22;9234;49.344;11.120;2023-07-13T07:48:25;22.00;81.40
18218;DHT22;9234;49.344;11.120;2023-07-13T07:50:53;22.10;80.50
18218;DHT22;9234;49.344;11.120;2023-07-13T07:53:21;22.00;80.20
18218;DHT22;9234;49.344;11.120;2023-07-13T07:55:50;21.90;79.60
18218;DHT22;9234;49.344;11.120;2023-07-13T07:58:23;21.90;79.10
18218;DHT22;9234;49.344;11.120;2023-07-13T08:00:55;22.00;80.10
18218;DHT22;9234;49.344;11.120;2023-07-13T08:03:33;22.10;79.40
18218;DHT22;9234;49.344;11.120;2023-07-13T08:06:04;22.20;80.20
18218;DHT22;9234;49.344;11.120;2023-07-13T08:08:36;22.30;80.30
18218;DHT22;9234;49.344;11.120;2023-07-13T08:11:05;22.30;78.70
18218;DHT22;9234;49.344;11.120;2023-07-13T08:13:39;22.30;78.20
18218;DHT22;9234;49.344;11.120;2023-07-13T08:16:07;22.40;79.20
18218;DHT22;9234;49.344;11.120;2023-07-13T08:18:35;22.40;77.40
18218;DHT22;9234;49.344;11.120;2023-07-13T08:21:04;22.40;78.20
18218;DHT22;9234;49.344;11.120;2023-07-13T08:23:34;22.50;77.90
18218;DHT22;9234;49.344;11.120;2023-07-13T08:26:03;22.60;78.10
18218;DHT22;9234;49.344;11.120;2023-07-13T08:28:33;22.70;76.90
18218;DHT22;9234;49.344;11.120;2023-07-13T08:31:03;22.70;74.50
18218;DHT22;9234;49.344;11.120;2023-07-13T08:33:33;22.80;73.50
18218;DHT22;9234;49.344;11.120;2023-07-13T08:36:03;22.90;72.40
18218;DHT22;9234;49.344;11.120;2023-07-13T08:38:32;23.10;72.30
18218;DHT22;9234;49.344;11.120;2023-07-13T08:41:09;23.10;69.60
18218;DHT22;9234;49.344;11.120;2023-07-13T08:43:41;23.20;70.00
18218;DHT22;9234;49.344;11.120;2023-07-13T08:46:17;23.20;70.00
18218;DHT22;9234;49.344;11.120;2023-07-13T08:48:50;23.20;68.90
18218;DHT22;9234;49.344;11.120;2023-07-13T08:51:39;23.30;68.10
18218;DHT22;9234;49.344;11.120;2023-07-13T08:54:21;23.40;64.70
18218;DHT22;9234;49.344;11.120;2023-07-13T08:56:56;23.60;65.30
18218;DHT22;9234;49.344;11.120;2023-07-13T08:59:28;23.70;66.20
18218;DHT22;9234;49.344;11.120;2023-07-13T09:02:19;23.90;65.60
18218;DHT22;9234;49.344;11.120;2023-07-13T09:04:56;24.00;60.80
18218;DHT22;9234;49.344;11.120;2023-07-13T09:07:48;24.00;61.30
18218;DHT22;9234;49.344;11.120;2023-07-13T09:10:28;24.10;62.60
18218;DHT22;9234;49.344;11.120;2023-07-13T09:13:09;24.20;61.60
18218;DHT22;9234;49.344;11.120;2023-07-13T09:15:49;24.10;58.70
18218;DHT22;9234;49.344;11.120;2023-07-13T09:18:25;24.10;58.50
18218;DHT22;9234;49.344;11.120;2023-07-13T09:20:58;24.10;57.60
18218;DHT22;9234;49.344;11.120;2023-07-13T09:23:31;24.10;58.60
18218;DHT22;9234;49.344;11.120;2023-07-13T09:26:04;24.10;59.20
18218;DHT22;9234;49.344;11.120;2023-07-13T09:28:39;24.00;59.70
18218;DHT22;9234;49.344;11.120;2023-07-13T09:31:14;24.10;61.10
18218;DHT22;9234;49.344;11.120;2023-07-13T09:33:46;24.00;60.00
18218;DHT22;9234;49.344;11.120;2023-07-13T09:36:20;24.10;60.50
18218;DHT22;9234;49.344;11.120;2023-07-13T09:38:58;24.10;59.20
18218;DHT22;9234;49.344;11.120;2023-07-13T09:41:37;24.10;58.60
18218;DHT22;9234;49.344;11.120;2023-07-13T09:44:11;24.10;58.10
18218;DHT22;9234;49.344;11.120;2023-07-13T09:46:44;24.10;59.20
18218;DHT22;9234;49.344;11.120;2023-07-13T09:49:15;24.10;60.00
18218;DHT22;9234;49.344;11.120;2023-07-13T09:51:45;24.20;59.10
18218;DHT22;9234;49.344;11.120;2023-07-13T09:54:18;24.40;59.60
18218;DHT22;9234;49.344;11.120;2023-07-13T09:56:48;24.70;60.30
18218;DHT22;9234;49.344;11.120;2023-07-13T09:59:24;25.00;59.70
18218;DHT22;9234;49.344;11.120;2023-07-13T10:01:55;25.40;58.20
18218;DHT22;9234;49.344;11.120;2023-07-13T10:04:30;25.70;58.30
18218;DHT22;9234;49.344;11.120;2023-07-13T10:07:09;25.90;56.80
18218;DHT22;9234;49.344;11.120;2023-07-13T10:09:57;26.00;54.70
18218;DHT22;9234;49.344;11.120;2023-07-13T10:12:29;25.90;54.60
18218;DHT22;9234;49.344;11.120;2023-07-13T10:15:07;26.10;53.80
18218;DHT22;9234;49.344;11.120;2023-07-13T10:17:51;26.00;51.80
18218;DHT22;9234;49.344;11.120;2023-07-13T10:20:24;26.00;51.50
18218;DHT22;9234;49.344;11.120;2023-07-13T10:22:57;26.00;52.10
18218;DHT22;9234;49.344;11.120;2023-07-13T10:25:32;26.20;53.40
18218;DHT22;9234;49.344;11.120;2023-07-13T10:28:09;26.40;52.40
18218;DHT22;9234;49.344;11.120;2023-07-13T10:30:48;26.50;51.70
18218;DHT22;9234;49.344;11.120;2023-07-13T10:33:21;26.80;52.80
18218;DHT22;9234;49.344;11.120;2023-07-13T10:35:54;26.90;50.50
18218;DHT22;9234;49.344;11.120;2023-07-13T10:38:43;27.00;50.80
18218;DHT22;9234;49.344;11.120;2023-07-13T10:41:18;27.30;51.50
18218;DHT22;9234;49.344;11.120;2023-07-13T10:43:51;27.50;51.80
18218;DHT22;9234;49.344;11.120;2023-07-13T10:46:27;27.30;50.90
18218;DHT22;9234;49.344;11.120;2023-07-13T10:48:59;27.10;50.70
18218;DHT22;9234;49.344;11.120;2023-07-13T10:51:33;26.90;51.20
18218;DHT22;9234;49.344;11.120;2023-07-13T10:54:16;26.90;50.30
18218;DHT22;9234;49.344;11.120;2023-07-13T10:56:52;27.10;50.80
18218;DHT22;9234;49.344;11.120;2023-07-13T10:59:34;27.40;50.10
18218;DHT22;9234;49.344;11.120;2023-07-13T11:02:13;27.60;49.50
18218;DHT22;9234;49.344;11.120;2023-07-13T11:04:53;27.50;49.00
18218;DHT22;9234;49.344;11.120;2023-07-13T11:07:25;27.40;49.80
18218;DHT22;9234;49.344;11.120;2023-07-13T11:09:57;27.70;50.20
18218;DHT22;9234;49.344;11.120;2023-07-13T11:12:51;27.90;49.70
18218;DHT22;9234;49.344;11.120;2023-07-13T11:15:31;28.10;49.50
18218;DHT22;9234;49.344;11.120;2023-07-13T11:18:21;28.20;49.50
18218;DHT22;9234;49.344;11.120;2023-07-13T11:20:52;28.00;49.30
18218;DHT22;9234;49.344;11.120;2023-07-13T11:24:04;27.90;49.40
18218;DHT22;9234;49.344;11.120;2023-07-13T11:26:50;28.00;48.70
18218;DHT22;9234;49.344;11.120;2023-07-13T11:29:27;28.10;48.20
18218;DHT22;9234;49.344;11.120;2023-07-13T11:32:23;28.20;48.50
18218;DHT22;9234;49.344;11.120;2023-07-13T11:34:54;28.60;49.20
18218;DHT22;9234;49.344;11.120;2023-07-13T11:37:23;28.90;47.50
18218;DHT22;9234;49.344;11.120;2023-07-13T11:39:54;29.20;47.10
18218;DHT22;9234;49.344;11.120;2023-07-13T11:42:22;29.60;48.20
18218;DHT22;9234;49.344;11.120;2023-07-13T11:44:52;29.80;46.00
18218;DHT22;9234;49.344;11.120;2023-07-13T11:47:40;29.90;46.00
18218;DHT22;9234;49.344;11.120;2023-07-13T11:50:18;29.70;45.40
18218;DHT22;9234;49.344;11.120;2023-07-13T11:52:49;29.20;45.70
18218;DHT22;9234;49.344;11.120;2023-07-13T11:55:23;29.10;46.70
18218;DHT22;9234;49.344;11.120;2023-07-13T11:57:56;29.00;46.10
18218;DHT22;9234;49.344;11.120;2023-07-13T12:00:30;29.00;47.40
18218;DHT22;9234;49.344;11.120;2023-07-13T12:03:02;29.20;46.50
18218;DHT22;9234;49.344;11.120;2023-07-13T12:05:32;29.50;46.40
18218;DHT22;9234;49.344;11.120;2023-07-13T12:08:09;29.80;45.80
18218;DHT22;9234;49.344;11.120;2023-07-13T12:11:03;29.90;45.30
18218;DHT22;9234;49.344;11.120;2023-07-13T12:13:37;29.90;45.60
18218;DHT22;9234;49.344;11.120;2023-07-13T12:16:15;29.50;44.90
18218;DHT22;9234;49.344;11.120;2023-07-13T12:18:52;29.20;45.80
18218;DHT22;9234;49.344;11.120;2023-07-13T12:21:29;29.30;46.00
18218;DHT22;9234;49.344;11.120;2023-07-13T12:24:00;29.70;45.20
18218;DHT22;9234;49.344;11.120;2023-07-13T12:26:32;30.00;44.60
18218;DHT22;9234;49.344;11.120;2023-07-13T12:29:01;29.80;45.10
18218;DHT22;9234;49.344;11.120;2023-07-13T12:31:36;29.70;44.00
18218;DHT22;9234;49.344;11.120;2023-07-13T12:34:08;29.90;44.50
18218;DHT22;9234;49.344;11.120;2023-07-13T12:36:40;30.10;45.10
18218;DHT22;9234;49.344;11.120;2023-07-13T12:39:17;30.20;44.40
18218;DHT22;9234;49.344;11.120;2023-07-13T12:41:53;30.10;44.80
18218;DHT22;9234;49.344;11.120;2023-07-13T12:44:27;30.00;44.30
18218;DHT22;9234;49.344;11.120;2023-07-13T12:46:59;29.80;44.00
18218;DHT22;9234;49.344;11.120;2023-07-13T12:49:33;29.90;44.70
18218;DHT22;9234;49.344;11.120;2023-07-13T12:52:09;30.00;43.80
18218;DHT22;9234;49.344;11.120;2023-07-13T12:54:42;29.90;44.10
18218;DHT22;9234;49.344;11.120;2023-07-13T12:57:38;30.20;44.70
18218;DHT22;9234;49.344;11.120;2023-07-13T13:00:27;30.60;44.60
18218;DHT22;9234;49.344;11.120;2023-07-13T13:03:04;30.90;44.30
18218;DHT22;9234;49.344;11.120;2023-07-13T13:05:41;31.40;43.30
18218;DHT22;9234;49.344;11.120;2023-07-13T13:08:12;31.50;42.90
18218;DHT22;9234;49.344;11.120;2023-07-13T13:10:41;31.50;43.50
18218;DHT22;9234;49.344;11.120;2023-07-13T13:13:11;30.90;42.60
18218;DHT22;9234;49.344;11.120;2023-07-13T13:15:39;30.30;43.80
18218;DHT22;9234;49.344;11.120;2023-07-13T13:18:15;30.20;44.80
18218;DHT22;9234;49.344;11.120;2023-07-13T13:20:45;30.50;45.60
18218;DHT22;9234;49.344;11.120;2023-07-13T13:23:16;30.50;44.00
18218;DHT22;9234;49.344;11.120;2023-07-13T13:25:46;30.60;44.70
18218;DHT22;9234;49.344;11.120;2023-07-13T13:28:19;30.40;43.50
18218;DHT22;9234;49.344;11.120;2023-07-13T13:30:50;30.10;44.20
18218;DHT22;9234;49.344;11.120;2023-07-13T13:33:20;30.10;45.40
18218;DHT22;9234;49.344;11.120;2023-07-13T13:35:50;30.40;45.60
18218;DHT22;9234;49.344;11.120;2023-07-13T13:38:21;30.20;43.40
18218;DHT22;9234;49.344;11.120;2023-07-13T13:40:53;29.60;45.20
18218;DHT22;9234;49.344;11.120;2023-07-13T13:43:25;29.60;46.30
18218;DHT22;9234;49.344;11.120;2023-07-13T13:45:56;29.70;46.80
18218;DHT22;9234;49.344;11.120;2023-07-13T13:48:30;29.70;47.50
18218;DHT22;9234;49.344;11.120;2023-07-13T13:51:01;29.80;46.60
18218;DHT22;9234;49.344;11.120;2023-07-13T13:53:40;29.80;46.60
18218;DHT22;9234;49.344;11.120;2023-07-13T13:56:09;29.40;45.70
18218;DHT22;9234;49.344;11.120;2023-07-13T13:58:39;29.00;46.70
18218;DHT22;9234;49.344;11.120;2023-07-13T14:01:12;28.90;47.20
18218;DHT22;9234;49.344;11.120;2023-07-13T14:03:44;29.10;47.80
18218;DHT22;9234;49.344;11.120;2023-07-13T14:06:16;29.70;47.30
18218;DHT22;9234;49.344;11.120;2023-07-13T14:08:44;30.00;46.10
18218;DHT22;9234;49.344;11.120;2023-07-13T14:11:16;30.10;45.90
18218;DHT22;9234;49.344;11.120;2023-07-13T14:13:49;30.20;46.40
18218;DHT22;9234;49.344;11.120;2023-07-13T14:16:21;30.70;46.00
18218;DHT22;9234;49.344;11.120;2023-07-13T14:18:51;31.10;44.70
18218;DHT22;9234;49.344;11.120;2023-07-13T14:21:21;31.70;45.10
18218;DHT22;9234;49.344;11.120;2023-07-13T14:23:50;32.00;43.60
18218;DHT22;9234;49.344;11.120;2023-07-13T14:26:20;32.40;43.50
18218;DHT22;9234;49.344;11.120;2023-07-13T14:28:54;32.70;42.10
18218;DHT22;9234;49.344;11.120;2023-07-13T14:31:26;32.80;41.10
18218;DHT22;9234;49.344;11.120;2023-07-13T14:33:57;32.80;40.40
18218;DHT22;9234;49.344;11.120;2023-07-13T14:36:28;32.60;40.20
18218;DHT22;9234;49.344;11.120;2023-07-13T14:39:00;32.70;41.40
18218;DHT22;9234;49.344;11.120;2023-07-13T14:41:39;32.60;40.50
18218;DHT22;9234;49.344;11.120;2023-07-13T14:44:16;32.70;40.40
18218;DHT22;9234;49.344;11.120;2023-07-13T14:46:46;32.80;40.80
18218;DHT22;9234;49.344;11.120;2023-07-13T14:49:20;32.70;40.40
18218;DHT22;9234;49.344;11.120;2023-07-13T14:51:52;32.70;41.00
18218;DHT22;9234;49.344;11.120;2023-07-13T14:54:20;33.00;42.20
18218;DHT22;9234;49.344;11.120;2023-07-13T14:56:48;33.70;42.00
18218;DHT22;9234;49.344;11.120;2023-07-13T14:59:18;34.10;40.50
18218;DHT22;9234;49.344;11.120;2023-07-13T15:01:47;34.40;40.40
18218;DHT22;9234;49.344;11.120;2023-07-13T15:04:17;34.10;38.70
18218;DHT22;9234;49.344;11.120;2023-07-13T15:06:57;34.00;37.90
18218;DHT22;9234;49.344;11.120;2023-07-13T15:09:28;33.50;37.70
18218;DHT22;9234;49.344;11.120;2023-07-13T15:11:57;33.10;38.20
18218;DHT22;9234;49.344;11.120;2023-07-13T15:14:28;33.20;39.60
18218;DHT22;9234;49.344;11.120;2023-07-13T15:16:58;33.40;39.60
18218;DHT22;9234;49.344;11.120;2023-07-13T15:19:27;33.70;39.40
18218;DHT22;9234;49.344;11.120;2023-07-13T15:21:56;33.40;38.00
18218;DHT22;9234;49.344;11.120;2023-07-13T15:24:25;33.20;38.40
18218;DHT22;9234;49.344;11.120;2023-07-13T15:26:54;33.20;39.10
18218;DHT22;9234;49.344;11.120;2023-07-13T15:29:22;33.40;39.10
18218;DHT22;9234;49.344;11.120;2023-07-13T15:31:52;33.40;38.20
18218;DHT22;9234;49.344;11.120;2023-07-13T15:34:24;33.50;37.60
18218;DHT22;9234;49.344;11.120;2023-07-13T15:36:54;33.70;37.50
18218;DHT22;9234;49.344;11.120;2023-07-13T15:39:22;33.90;37.70
18218;DHT22;9234;49.344;11.120;2023-07-13T15:41:51;34.20;39.10
18218;DHT22;9234;49.344;11.120;2023-07-13T15:44:23;34.10;37.30
18218;DHT22;9234;49.344;11.120;2023-07-13T15:46:56;34.00;38.50
18218;DHT22;9234;49.344;11.120;2023-07-13T15:49:27;34.00;37.60
18218;DHT22;9234;49.344;11.120;2023-07-13T15:51:56;34.10;36.60
18218;DHT22;9234;49.344;11.120;2023-07-13T15:54:25;34.00;36.70
18218;DHT22;9234;49.344;11.120;2023-07-13T15:56:55;33.60;37.20
18218;DHT22;9234;49.344;11.120;2023-07-13T15:59:23;33.40;38.20